METAR Details

3:29pm on 6/11/10

National Oceanic and Atmospheric Administration (NOAA) METAR sites at Phoenix metro area airports.

They usually update between ten till and the top of the hour, Glendale doesn't at night.  So they should update here at beginning of each hour.  METAR is an international standard Aviation Routine Weather Report code.  The reports are primarily collected by equipment such as Automated Surface Observing Systems (ASOS).  In the code the time is given in ZULU or UTC, wind in Knots, and temperatures in centigrade. VWS translates the code and creates the icons below from the coded METAR text.:

Virtual Weather Station Generates this local one from my data:

2010/06/11 22:05
KCW2069 112205Z 25008KT 33/09 A2969 SCT250 

METAR FAQ
Decoding Avation Routine Weather Report (METAR)
METAR/TAF Information


2010/06/11 21:51
KPHX 112151Z VRB05KT 10SM FEW110 SCT180 SCT250 34/07 A2964 RMK AO2 SLP016 T03440067 $
KPHX Phoenix, AZ Sky Harbor NOAA KPHX      METAR Identifier
Phoenix      METAR Site
06/11/2010 02:51pm      UTC Update
N      Wind Direction
5      Wind Speed
5      Wind Gust
10      Visibility
11.0      Cloud Height
     Weather
---      Rain/hr
Scattered Clouds      Sky
93.2      Temperature
44.6      Dew Point
29.64      Pressure
Caculated
19      % Relative Humidity
93.2      Wind Chill
89.4      Heat Index
2010/06/11 21:53
KDVT 112153Z 25013G20KT 10SM CLR 31/09 A2968 RMK AO2 SLP025 T03110089
KDVT Phoenix, AZ Deer Valley NOAA KDVT      METAR Identifier
Deer Valley      METAR Site
06/11/2010 02:53pm      UTC Update
WSW      Wind Direction
14      Wind Speed
23      Wind Gust
10      Visibility
---      Cloud Height
     Weather
---      Rain/hr
Clear      Sky
87.8      Temperature
48.2      Dew Point
29.68      Pressure
Caculated
26      % Relative Humidity
86.7      Wind Chill
84.9      Heat Index
2010/06/11 21:47
KGEU 112147Z 24012KT 20SM FEW150 SCT200 33/08 A2967
KGEU Glendale, AZ NOAA KGEU      METAR Identifier
Glendale      METAR Site
06/11/2010 02:47pm      UTC Update
WSW      Wind Direction
13      Wind Speed
13      Wind Gust
20      Visibility
15.0      Cloud Height
     Weather
---      Rain/hr
Scattered Clouds      Sky
91.4      Temperature
46.4      Dew Point
29.67      Pressure
Caculated
21      % Relative Humidity
91.4      Wind Chill
87.9      Heat Index
2010/06/11 21:55
KLUF 112155Z 26021G25KT 10SM FEW200 34/10 A2966 RMK AO2A SLP016 T03410096 $
KLUF Luke Air Force Base, AZ KLUF      METAR Identifier
Luke Air Force      METAR Site
06/11/2010 02:55pm      UTC Update
W      Wind Direction
24      Wind Speed
28      Wind Gust
10      Visibility
20.0      Cloud Height
     Weather
---      Rain/hr
Few Clouds      Sky
93.2      Temperature
50.0      Dew Point
29.66      Pressure
Caculated
23      % Relative Humidity
93.2      Wind Chill
90.1      Heat Index
2010/06/11 21:53
KSDL 112153Z VRB03KT 10SM CLR 32/08 A2969 RMK AO2 PK WND 36032/2127 SLP027 T03170078
KSDL Scottsdale, AZ NOAA KSDL      METAR Identifier
Scottsdale      METAR Site
06/11/2010 02:53pm      UTC Update
N      Wind Direction
3      Wind Speed
3      Wind Gust
10      Visibility
---      Cloud Height
     Weather
---      Rain/hr
Clear      Sky
89.6      Temperature
46.4      Dew Point
29.69      Pressure
Caculated
23      % Relative Humidity
89.6      Wind Chill
86.2      Heat Index
2010/06/11 21:47
KIWA 112147Z 21012G21KT 35SM VCPO SCT100 SCT200 SCT250 35/02 A2966
KIWA Mesa, AZ Gateway NOAA KIWA      METAR Identifier
Mesa Gateway      METAR Site
06/11/2010 02:47pm      UTC Update
SSW      Wind Direction
13      Wind Speed
24      Wind Gust
35      Visibility
10.0      Cloud Height
Dust/Sand Whirls in the Vicinity      Weather
---      Rain/hr
Scattered Clouds      Sky
95.0      Temperature
35.6      Dew Point
29.66      Pressure
Caculated
13      % Relative Humidity
95.0      Wind Chill
90.4      Heat Index
2010/06/11 21:52
KALS 112152Z AUTO 24013G19KT 10SM CLR 27/01 A2999 RMK AO2 SLP048 T02670011
KALS Alamosa, CO KALS      METAR Identifier
Alamosa      METAR Site
06/11/2010 02:52pm      UTC Update
WSW      Wind Direction
14      Wind Speed
21      Wind Gust
10      Visibility
---      Cloud Height
     Weather
---      Rain/hr
Clear      Sky
80.6      Temperature
33.8      Dew Point
29.99      Pressure
Caculated
18      % Relative Humidity
77.2      Wind Chill
78.9      Heat Index

Scott's Weather Page Current Conditions   Rapid Current Conditions   Detailed Conditions
Weather links   Daily Tabular Data   Metar Detail   Local Weather Exchange   USA Weather

About Scott    Scott's World     Citizen Weather Observer Program Station ID CW2069
Phoenix Weather at weatherforyou.com    Phoenix Weather at weather.com
Neighborhood link: Sevilla    Ambient Weather's Virtual Weather
Member of the Weather Underground data exchange    Citizen Weather Observer Program
TiggrWeather Topsites    Weather sites from around the world.
Weather sites from around the world.
Weather Station Finder